Willard, Missouri
Current Conditions -  °F | °C
As of 9:34 PM on Saturday 22 Nov 2014 (Local Time) from KSGF Reporting Station
Scattered Clouds Scattered Clouds  
Wind Chill: 53°   Ceiling: Unl
Heat Index: 53°   Visibility: 10mi
Dew Point: 51°   Wind: 16mph
Humidity: 93%   Direction: 150°SSE
Pressure: 29.81"   Gusts: NA
Location:  37.31°N, 93.43°W
Report Text: KSGF 230334Z 15014KT 10SM SCT018 12/11 A2981 RMK AO2 T01170106
Loading
Personal Weather Stations






























Interactive Weather Map New forecast layout! Learn more

10-Day Weather Forecast

Advertisements
Track Severe Weather on mobile